sensor_id;sensor_type;location;lat;lon;timestamp;P1;durP1;ratioP1;P2;durP2;ratioP2
7531;SDS011;3807;49.030;8.714;2023-02-28T00:02:14;4.63;;;2.43;;
7531;SDS011;3807;49.030;8.714;2023-02-28T00:04:42;3.20;;;2.83;;
7531;SDS011;3807;49.030;8.714;2023-02-28T00:07:08;3.10;;;2.50;;
7531;SDS011;3807;49.030;8.714;2023-02-28T00:09:33;4.00;;;2.97;;
7531;SDS011;3807;49.030;8.714;2023-02-28T00:11:58;3.47;;;2.67;;
7531;SDS011;3807;49.030;8.714;2023-02-28T00:14:24;3.20;;;2.60;;
7531;SDS011;3807;49.030;8.714;2023-02-28T00:16:49;2.70;;;2.43;;
7531;SDS011;3807;49.030;8.714;2023-02-28T00:19:14;4.33;;;2.60;;
7531;SDS011;3807;49.030;8.714;2023-02-28T00:21:40;3.07;;;2.77;;
7531;SDS011;3807;49.030;8.714;2023-02-28T00:24:06;3.30;;;3.00;;
7531;SDS011;3807;49.030;8.714;2023-02-28T00:26:31;3.10;;;2.23;;
7531;SDS011;3807;49.030;8.714;2023-02-28T00:28:57;2.83;;;2.30;;
7531;SDS011;3807;49.030;8.714;2023-02-28T00:31:22;2.10;;;1.90;;
7531;SDS011;3807;49.030;8.714;2023-02-28T00:33:48;2.93;;;2.23;;
7531;SDS011;3807;49.030;8.714;2023-02-28T00:36:13;6.40;;;2.43;;
7531;SDS011;3807;49.030;8.714;2023-02-28T00:38:39;3.23;;;2.60;;
7531;SDS011;3807;49.030;8.714;2023-02-28T00:41:05;2.90;;;2.50;;
7531;SDS011;3807;49.030;8.714;2023-02-28T00:43:34;5.33;;;1.83;;
7531;SDS011;3807;49.030;8.714;2023-02-28T00:46:02;2.77;;;2.53;;
7531;SDS011;3807;49.030;8.714;2023-02-28T00:48:28;6.53;;;2.77;;
7531;SDS011;3807;49.030;8.714;2023-02-28T00:50:53;3.20;;;2.80;;
7531;SDS011;3807;49.030;8.714;2023-02-28T00:53:19;1.77;;;1.67;;
7531;SDS011;3807;49.030;8.714;2023-02-28T00:55:44;3.37;;;2.27;;
7531;SDS011;3807;49.030;8.714;2023-02-28T00:58:09;3.20;;;2.83;;
7531;SDS011;3807;49.030;8.714;2023-02-28T01:00:34;2.23;;;1.63;;
7531;SDS011;3807;49.030;8.714;2023-02-28T01:03:00;4.97;;;3.30;;
7531;SDS011;3807;49.030;8.714;2023-02-28T01:05:25;4.50;;;2.90;;
7531;SDS011;3807;49.030;8.714;2023-02-28T01:07:50;2.80;;;2.43;;
7531;SDS011;3807;49.030;8.714;2023-02-28T01:10:16;3.10;;;2.53;;
7531;SDS011;3807;49.030;8.714;2023-02-28T01:12:41;2.10;;;1.87;;
7531;SDS011;3807;49.030;8.714;2023-02-28T01:15:06;6.20;;;3.10;;
7531;SDS011;3807;49.030;8.714;2023-02-28T01:17:34;11.30;;;2.10;;
7531;SDS011;3807;49.030;8.714;2023-02-28T01:20:00;2.10;;;1.90;;
7531;SDS011;3807;49.030;8.714;2023-02-28T01:22:26;2.23;;;1.93;;
7531;SDS011;3807;49.030;8.714;2023-02-28T01:24:51;3.73;;;2.50;;
7531;SDS011;3807;49.030;8.714;2023-02-28T01:27:16;3.70;;;2.63;;
7531;SDS011;3807;49.030;8.714;2023-02-28T01:29:42;2.10;;;1.87;;
7531;SDS011;3807;49.030;8.714;2023-02-28T01:32:07;3.67;;;2.80;;
7531;SDS011;3807;49.030;8.714;2023-02-28T01:34:32;1.80;;;1.70;;
7531;SDS011;3807;49.030;8.714;2023-02-28T01:36:58;3.53;;;2.83;;
7531;SDS011;3807;49.030;8.714;2023-02-28T01:39:23;3.23;;;2.70;;
7531;SDS011;3807;49.030;8.714;2023-02-28T01:41:49;5.43;;;2.33;;
7531;SDS011;3807;49.030;8.714;2023-02-28T01:47:18;4.03;;;2.93;;
7531;SDS011;3807;49.030;8.714;2023-02-28T01:49:44;1.70;;;1.53;;
7531;SDS011;3807;49.030;8.714;2023-02-28T01:52:09;3.10;;;2.80;;
7531;SDS011;3807;49.030;8.714;2023-02-28T01:54:43;2.80;;;2.03;;
7531;SDS011;3807;49.030;8.714;2023-02-28T01:57:14;4.53;;;2.93;;
7531;SDS011;3807;49.030;8.714;2023-02-28T01:59:48;3.77;;;2.40;;
7531;SDS011;3807;49.030;8.714;2023-02-28T02:02:23;3.23;;;2.70;;
7531;SDS011;3807;49.030;8.714;2023-02-28T02:04:51;4.00;;;2.73;;
7531;SDS011;3807;49.030;8.714;2023-02-28T02:07:20;3.33;;;3.03;;
7531;SDS011;3807;49.030;8.714;2023-02-28T02:09:46;4.40;;;2.97;;
7531;SDS011;3807;49.030;8.714;2023-02-28T02:17:44;3.37;;;2.90;;
7531;SDS011;3807;49.030;8.714;2023-02-28T02:20:16;4.20;;;2.60;;
7531;SDS011;3807;49.030;8.714;2023-02-28T02:40:22;5.23;;;2.90;;
7531;SDS011;3807;49.030;8.714;2023-02-28T02:45:53;4.23;;;2.70;;
7531;SDS011;3807;49.030;8.714;2023-02-28T02:48:21;5.30;;;3.03;;
7531;SDS011;3807;49.030;8.714;2023-02-28T02:50:53;3.80;;;3.27;;
7531;SDS011;3807;49.030;8.714;2023-02-28T02:53:23;2.33;;;2.13;;
7531;SDS011;3807;49.030;8.714;2023-02-28T02:55:54;4.03;;;3.27;;
7531;SDS011;3807;49.030;8.714;2023-02-28T02:58:24;4.67;;;3.53;;
7531;SDS011;3807;49.030;8.714;2023-02-28T03:00:55;6.33;;;3.27;;
7531;SDS011;3807;49.030;8.714;2023-02-28T03:03:25;4.30;;;3.13;;
7531;SDS011;3807;49.030;8.714;2023-02-28T03:05:58;3.87;;;3.10;;
7531;SDS011;3807;49.030;8.714;2023-02-28T03:08:25;2.43;;;2.23;;
7531;SDS011;3807;49.030;8.714;2023-02-28T03:10:54;4.50;;;4.10;;
7531;SDS011;3807;49.030;8.714;2023-02-28T03:21:32;4.67;;;3.00;;
7531;SDS011;3807;49.030;8.714;2023-02-28T03:26:50;4.73;;;3.37;;
7531;SDS011;3807;49.030;8.714;2023-02-28T03:29:31;2.80;;;2.13;;
7531;SDS011;3807;49.030;8.714;2023-02-28T03:32:03;4.00;;;3.10;;
7531;SDS011;3807;49.030;8.714;2023-02-28T03:34:39;4.40;;;2.73;;
7531;SDS011;3807;49.030;8.714;2023-02-28T03:37:13;4.47;;;3.43;;
7531;SDS011;3807;49.030;8.714;2023-02-28T03:39:44;4.73;;;3.17;;
7531;SDS011;3807;49.030;8.714;2023-02-28T03:42:14;4.03;;;3.17;;
7531;SDS011;3807;49.030;8.714;2023-02-28T03:44:46;4.77;;;3.30;;
7531;SDS011;3807;49.030;8.714;2023-02-28T03:47:17;5.70;;;4.03;;
7531;SDS011;3807;49.030;8.714;2023-02-28T03:49:50;4.37;;;3.40;;
7531;SDS011;3807;49.030;8.714;2023-02-28T03:52:48;3.10;;;2.80;;
7531;SDS011;3807;49.030;8.714;2023-02-28T03:55:18;6.50;;;4.30;;
7531;SDS011;3807;49.030;8.714;2023-02-28T03:57:56;4.57;;;3.17;;
7531;SDS011;3807;49.030;8.714;2023-02-28T04:00:31;4.83;;;3.40;;
7531;SDS011;3807;49.030;8.714;2023-02-28T04:03:01;5.87;;;3.43;;
7531;SDS011;3807;49.030;8.714;2023-02-28T04:05:26;5.63;;;4.00;;
7531;SDS011;3807;49.030;8.714;2023-02-28T04:07:52;3.60;;;2.70;;
7531;SDS011;3807;49.030;8.714;2023-02-28T04:10:19;4.50;;;3.07;;
7531;SDS011;3807;49.030;8.714;2023-02-28T04:12:45;3.50;;;3.20;;
7531;SDS011;3807;49.030;8.714;2023-02-28T04:15:10;3.90;;;3.27;;
7531;SDS011;3807;49.030;8.714;2023-02-28T04:17:36;6.20;;;3.20;;
7531;SDS011;3807;49.030;8.714;2023-02-28T04:20:02;6.47;;;4.00;;
7531;SDS011;3807;49.030;8.714;2023-02-28T04:22:28;3.97;;;3.23;;
7531;SDS011;3807;49.030;8.714;2023-02-28T04:24:54;1.63;;;1.47;;
7531;SDS011;3807;49.030;8.714;2023-02-28T04:27:19;4.40;;;3.13;;
7531;SDS011;3807;49.030;8.714;2023-02-28T04:29:45;4.67;;;3.40;;
7531;SDS011;3807;49.030;8.714;2023-02-28T04:32:11;4.17;;;3.77;;
7531;SDS011;3807;49.030;8.714;2023-02-28T04:34:36;5.27;;;3.53;;
7531;SDS011;3807;49.030;8.714;2023-02-28T04:37:02;4.47;;;3.57;;
7531;SDS011;3807;49.030;8.714;2023-02-28T04:39:28;4.93;;;3.30;;
7531;SDS011;3807;49.030;8.714;2023-02-28T04:41:54;5.73;;;3.57;;
7531;SDS011;3807;49.030;8.714;2023-02-28T04:44:20;6.60;;;4.47;;
7531;SDS011;3807;49.030;8.714;2023-02-28T04:46:47;5.33;;;3.87;;
7531;SDS011;3807;49.030;8.714;2023-02-28T04:49:13;5.60;;;3.87;;
7531;SDS011;3807;49.030;8.714;2023-02-28T04:51:39;4.67;;;3.30;;
7531;SDS011;3807;49.030;8.714;2023-02-28T04:54:04;2.80;;;2.43;;
7531;SDS011;3807;49.030;8.714;2023-02-28T04:56:30;2.10;;;1.90;;
7531;SDS011;3807;49.030;8.714;2023-02-28T04:58:55;3.80;;;2.97;;
7531;SDS011;3807;49.030;8.714;2023-02-28T05:01:25;5.67;;;4.03;;
7531;SDS011;3807;49.030;8.714;2023-02-28T05:03:53;3.40;;;2.93;;
7531;SDS011;3807;49.030;8.714;2023-02-28T05:06:20;5.47;;;3.80;;
7531;SDS011;3807;49.030;8.714;2023-02-28T05:08:46;6.53;;;3.90;;
7531;SDS011;3807;49.030;8.714;2023-02-28T05:13:45;4.20;;;3.30;;
7531;SDS011;3807;49.030;8.714;2023-02-28T05:16:11;5.53;;;4.23;;
7531;SDS011;3807;49.030;8.714;2023-02-28T05:18:37;4.70;;;4.10;;
7531;SDS011;3807;49.030;8.714;2023-02-28T05:21:02;6.93;;;4.47;;
7531;SDS011;3807;49.030;8.714;2023-02-28T05:23:28;5.47;;;3.00;;
7531;SDS011;3807;49.030;8.714;2023-02-28T05:25:53;6.00;;;4.00;;
7531;SDS011;3807;49.030;8.714;2023-02-28T05:28:19;10.07;;;4.47;;
7531;SDS011;3807;49.030;8.714;2023-02-28T05:30:45;16.23;;;2.80;;
7531;SDS011;3807;49.030;8.714;2023-02-28T05:33:10;5.70;;;3.93;;
7531;SDS011;3807;49.030;8.714;2023-02-28T05:35:37;7.70;;;4.30;;
7531;SDS011;3807;49.030;8.714;2023-02-28T05:38:04;3.23;;;2.90;;
7531;SDS011;3807;49.030;8.714;2023-02-28T05:40:29;6.30;;;3.60;;
7531;SDS011;3807;49.030;8.714;2023-02-28T05:42:55;4.80;;;3.30;;
7531;SDS011;3807;49.030;8.714;2023-02-28T05:45:20;4.60;;;3.37;;
7531;SDS011;3807;49.030;8.714;2023-02-28T05:47:45;6.40;;;3.70;;
7531;SDS011;3807;49.030;8.714;2023-02-28T05:50:11;5.30;;;3.03;;
7531;SDS011;3807;49.030;8.714;2023-02-28T05:52:36;3.20;;;2.20;;
7531;SDS011;3807;49.030;8.714;2023-02-28T05:55:02;4.63;;;3.30;;
7531;SDS011;3807;49.030;8.714;2023-02-28T05:57:28;6.17;;;4.00;;
7531;SDS011;3807;49.030;8.714;2023-02-28T05:59:53;6.80;;;3.53;;
7531;SDS011;3807;49.030;8.714;2023-02-28T06:02:18;6.93;;;4.10;;
7531;SDS011;3807;49.030;8.714;2023-02-28T06:04:44;18.30;;;7.67;;
7531;SDS011;3807;49.030;8.714;2023-02-28T06:07:09;4.30;;;3.30;;
7531;SDS011;3807;49.030;8.714;2023-02-28T06:09:35;5.17;;;3.80;;
7531;SDS011;3807;49.030;8.714;2023-02-28T06:12:02;5.83;;;3.63;;
7531;SDS011;3807;49.030;8.714;2023-02-28T06:14:30;4.53;;;3.33;;
7531;SDS011;3807;49.030;8.714;2023-02-28T06:16:57;5.00;;;3.90;;
7531;SDS011;3807;49.030;8.714;2023-02-28T06:19:23;5.50;;;3.13;;
7531;SDS011;3807;49.030;8.714;2023-02-28T06:21:50;6.50;;;4.40;;
7531;SDS011;3807;49.030;8.714;2023-02-28T06:24:17;5.73;;;3.43;;
7531;SDS011;3807;49.030;8.714;2023-02-28T06:26:43;5.13;;;3.13;;
7531;SDS011;3807;49.030;8.714;2023-02-28T06:29:09;5.27;;;4.07;;
7531;SDS011;3807;49.030;8.714;2023-02-28T06:31:34;4.53;;;3.43;;
7531;SDS011;3807;49.030;8.714;2023-02-28T06:33:59;5.73;;;2.80;;
7531;SDS011;3807;49.030;8.714;2023-02-28T06:36:25;5.13;;;3.67;;
7531;SDS011;3807;49.030;8.714;2023-02-28T06:38:50;3.47;;;2.23;;
7531;SDS011;3807;49.030;8.714;2023-02-28T06:41:19;5.70;;;3.13;;
7531;SDS011;3807;49.030;8.714;2023-02-28T06:43:46;5.83;;;4.43;;
7531;SDS011;3807;49.030;8.714;2023-02-28T06:46:12;7.17;;;4.23;;
7531;SDS011;3807;49.030;8.714;2023-02-28T06:48:39;9.03;;;4.60;;
7531;SDS011;3807;49.030;8.714;2023-02-28T06:51:08;8.07;;;4.47;;
7531;SDS011;3807;49.030;8.714;2023-02-28T06:53:36;8.07;;;4.80;;
7531;SDS011;3807;49.030;8.714;2023-02-28T06:56:05;9.33;;;3.87;;
7531;SDS011;3807;49.030;8.714;2023-02-28T06:58:32;3.83;;;2.70;;
7531;SDS011;3807;49.030;8.714;2023-02-28T07:00:58;6.20;;;3.80;;
7531;SDS011;3807;49.030;8.714;2023-02-28T07:03:23;3.07;;;2.77;;
7531;SDS011;3807;49.030;8.714;2023-02-28T07:05:48;3.80;;;3.27;;
7531;SDS011;3807;49.030;8.714;2023-02-28T07:08:14;8.47;;;5.00;;
7531;SDS011;3807;49.030;8.714;2023-02-28T07:10:40;5.17;;;3.47;;
7531;SDS011;3807;49.030;8.714;2023-02-28T07:13:06;7.87;;;4.90;;
7531;SDS011;3807;49.030;8.714;2023-02-28T07:15:32;4.30;;;3.67;;
7531;SDS011;3807;49.030;8.714;2023-02-28T07:17:57;5.97;;;4.70;;
7531;SDS011;3807;49.030;8.714;2023-02-28T07:20:23;5.77;;;4.30;;
7531;SDS011;3807;49.030;8.714;2023-02-28T07:22:49;6.87;;;4.77;;
7531;SDS011;3807;49.030;8.714;2023-02-28T07:25:21;8.50;;;4.17;;
7531;SDS011;3807;49.030;8.714;2023-02-28T07:27:48;6.07;;;4.13;;
7531;SDS011;3807;49.030;8.714;2023-02-28T07:30:13;3.00;;;2.70;;
7531;SDS011;3807;49.030;8.714;2023-02-28T07:32:39;6.50;;;3.47;;
7531;SDS011;3807;49.030;8.714;2023-02-28T07:35:04;5.13;;;3.80;;
7531;SDS011;3807;49.030;8.714;2023-02-28T07:37:30;7.17;;;4.33;;
7531;SDS011;3807;49.030;8.714;2023-02-28T07:40:04;7.30;;;4.13;;
7531;SDS011;3807;49.030;8.714;2023-02-28T07:42:33;4.07;;;3.27;;
7531;SDS011;3807;49.030;8.714;2023-02-28T07:44:59;5.13;;;3.90;;
7531;SDS011;3807;49.030;8.714;2023-02-28T07:47:25;9.73;;;4.87;;
7531;SDS011;3807;49.030;8.714;2023-02-28T07:49:50;6.97;;;3.83;;
7531;SDS011;3807;49.030;8.714;2023-02-28T07:52:15;8.23;;;4.63;;
7531;SDS011;3807;49.030;8.714;2023-02-28T07:54:41;4.53;;;3.47;;
7531;SDS011;3807;49.030;8.714;2023-02-28T07:57:06;5.90;;;3.67;;
7531;SDS011;3807;49.030;8.714;2023-02-28T07:59:31;5.90;;;4.03;;
7531;SDS011;3807;49.030;8.714;2023-02-28T08:01:57;5.73;;;3.77;;
7531;SDS011;3807;49.030;8.714;2023-02-28T08:04:23;7.87;;;5.28;;
7531;SDS011;3807;49.030;8.714;2023-02-28T08:06:48;2.77;;;2.23;;
7531;SDS011;3807;49.030;8.714;2023-02-28T08:09:16;5.33;;;4.20;;
7531;SDS011;3807;49.030;8.714;2023-02-28T08:11:42;8.90;;;5.30;;
7531;SDS011;3807;49.030;8.714;2023-02-28T08:14:07;7.97;;;4.90;;
7531;SDS011;3807;49.030;8.714;2023-02-28T08:16:32;7.57;;;4.37;;
7531;SDS011;3807;49.030;8.714;2023-02-28T08:18:58;10.00;;;5.33;;
7531;SDS011;3807;49.030;8.714;2023-02-28T08:21:23;7.73;;;4.33;;
7531;SDS011;3807;49.030;8.714;2023-02-28T08:23:49;8.40;;;5.07;;
7531;SDS011;3807;49.030;8.714;2023-02-28T08:26:16;6.63;;;3.80;;
7531;SDS011;3807;49.030;8.714;2023-02-28T08:28:42;7.70;;;5.10;;
7531;SDS011;3807;49.030;8.714;2023-02-28T08:31:09;7.23;;;5.20;;
7531;SDS011;3807;49.030;8.714;2023-02-28T08:33:36;6.07;;;3.73;;
7531;SDS011;3807;49.030;8.714;2023-02-28T08:36:04;6.70;;;4.50;;
7531;SDS011;3807;49.030;8.714;2023-02-28T08:38:30;10.07;;;4.80;;
7531;SDS011;3807;49.030;8.714;2023-02-28T08:41:03;7.30;;;5.00;;
7531;SDS011;3807;49.030;8.714;2023-02-28T08:43:32;7.13;;;5.73;;
7531;SDS011;3807;49.030;8.714;2023-02-28T08:45:58;6.53;;;4.40;;
7531;SDS011;3807;49.030;8.714;2023-02-28T08:48:24;7.50;;;5.00;;
7531;SDS011;3807;49.030;8.714;2023-02-28T08:50:57;7.80;;;5.30;;
7531;SDS011;3807;49.030;8.714;2023-02-28T08:53:30;6.50;;;4.13;;
7531;SDS011;3807;49.030;8.714;2023-02-28T08:56:14;4.40;;;3.23;;
7531;SDS011;3807;49.030;8.714;2023-02-28T08:58:41;9.33;;;6.27;;
7531;SDS011;3807;49.030;8.714;2023-02-28T09:01:15;11.30;;;5.17;;
7531;SDS011;3807;49.030;8.714;2023-02-28T09:03:42;4.27;;;3.53;;
7531;SDS011;3807;49.030;8.714;2023-02-28T09:06:08;8.70;;;6.30;;
7531;SDS011;3807;49.030;8.714;2023-02-28T09:08:35;6.50;;;3.47;;
7531;SDS011;3807;49.030;8.714;2023-02-28T09:11:01;6.50;;;4.37;;
7531;SDS011;3807;49.030;8.714;2023-02-28T09:13:27;10.77;;;6.07;;
7531;SDS011;3807;49.030;8.714;2023-02-28T09:15:56;6.60;;;4.73;;
7531;SDS011;3807;49.030;8.714;2023-02-28T09:18:23;7.73;;;5.70;;
7531;SDS011;3807;49.030;8.714;2023-02-28T09:20:48;9.37;;;5.57;;
7531;SDS011;3807;49.030;8.714;2023-02-28T09:23:15;5.80;;;3.97;;
7531;SDS011;3807;49.030;8.714;2023-02-28T09:25:51;10.17;;;5.17;;
7531;SDS011;3807;49.030;8.714;2023-02-28T09:28:18;4.17;;;3.17;;
7531;SDS011;3807;49.030;8.714;2023-02-28T09:30:45;3.77;;;2.77;;
7531;SDS011;3807;49.030;8.714;2023-02-28T09:33:12;11.63;;;5.20;;
7531;SDS011;3807;49.030;8.714;2023-02-28T09:35:38;7.47;;;5.40;;
7531;SDS011;3807;49.030;8.714;2023-02-28T09:38:04;10.23;;;6.13;;
7531;SDS011;3807;49.030;8.714;2023-02-28T09:40:30;8.33;;;6.10;;
7531;SDS011;3807;49.030;8.714;2023-02-28T09:42:56;8.80;;;5.83;;
7531;SDS011;3807;49.030;8.714;2023-02-28T09:47:54;7.53;;;3.63;;
7531;SDS011;3807;49.030;8.714;2023-02-28T09:55:59;7.60;;;4.77;;
7531;SDS011;3807;49.030;8.714;2023-02-28T09:59:02;4.07;;;3.13;;
7531;SDS011;3807;49.030;8.714;2023-02-28T10:01:42;10.40;;;6.00;;
7531;SDS011;3807;49.030;8.714;2023-02-28T10:04:23;8.93;;;5.67;;
7531;SDS011;3807;49.030;8.714;2023-02-28T10:07:44;8.37;;;4.80;;
7531;SDS011;3807;49.030;8.714;2023-02-28T10:10:23;8.07;;;5.00;;
7531;SDS011;3807;49.030;8.714;2023-02-28T10:12:53;11.33;;;5.13;;
7531;SDS011;3807;49.030;8.714;2023-02-28T10:15:23;11.03;;;5.70;;
7531;SDS011;3807;49.030;8.714;2023-02-28T10:17:53;7.40;;;3.17;;
7531;SDS011;3807;49.030;8.714;2023-02-28T10:20:21;10.83;;;3.57;;
7531;SDS011;3807;49.030;8.714;2023-02-28T10:25:44;7.60;;;4.40;;
7531;SDS011;3807;49.030;8.714;2023-02-28T10:28:15;9.90;;;6.07;;
7531;SDS011;3807;49.030;8.714;2023-02-28T10:30:49;5.70;;;2.80;;
7531;SDS011;3807;49.030;8.714;2023-02-28T10:33:17;9.03;;;3.83;;
7531;SDS011;3807;49.030;8.714;2023-02-28T10:35:48;9.13;;;5.93;;
7531;SDS011;3807;49.030;8.714;2023-02-28T10:38:15;4.67;;;3.13;;
7531;SDS011;3807;49.030;8.714;2023-02-28T10:40:43;6.40;;;4.87;;
7531;SDS011;3807;49.030;8.714;2023-02-28T10:46:03;11.37;;;6.63;;
7531;SDS011;3807;49.030;8.714;2023-02-28T10:50:54;10.03;;;4.10;;
7531;SDS011;3807;49.030;8.714;2023-02-28T10:53:25;13.17;;;7.10;;
7531;SDS011;3807;49.030;8.714;2023-02-28T10:58:56;7.33;;;3.70;;
7531;SDS011;3807;49.030;8.714;2023-02-28T11:01:27;12.70;;;7.30;;
7531;SDS011;3807;49.030;8.714;2023-02-28T11:04:02;8.43;;;5.00;;
7531;SDS011;3807;49.030;8.714;2023-02-28T11:06:31;12.37;;;6.47;;
7531;SDS011;3807;49.030;8.714;2023-02-28T11:09:03;10.13;;;6.90;;
7531;SDS011;3807;49.030;8.714;2023-02-28T11:11:46;5.03;;;3.37;;
7531;SDS011;3807;49.030;8.714;2023-02-28T11:14:21;10.93;;;8.13;;
7531;SDS011;3807;49.030;8.714;2023-02-28T11:16:49;5.73;;;3.77;;
7531;SDS011;3807;49.030;8.714;2023-02-28T11:19:35;7.37;;;5.63;;
7531;SDS011;3807;49.030;8.714;2023-02-28T11:22:05;7.20;;;5.07;;
7531;SDS011;3807;49.030;8.714;2023-02-28T11:24:33;6.83;;;3.83;;
7531;SDS011;3807;49.030;8.714;2023-02-28T11:27:13;6.27;;;4.63;;
7531;SDS011;3807;49.030;8.714;2023-02-28T11:29:50;10.50;;;5.00;;
7531;SDS011;3807;49.030;8.714;2023-02-28T11:32:19;6.57;;;4.93;;
7531;SDS011;3807;49.030;8.714;2023-02-28T11:37:27;11.13;;;7.07;;
7531;SDS011;3807;49.030;8.714;2023-02-28T11:39:54;12.23;;;6.37;;
7531;SDS011;3807;49.030;8.714;2023-02-28T11:42:27;10.20;;;6.57;;
7531;SDS011;3807;49.030;8.714;2023-02-28T11:45:16;5.37;;;4.27;;
7531;SDS011;3807;49.030;8.714;2023-02-28T11:47:51;11.67;;;7.20;;
7531;SDS011;3807;49.030;8.714;2023-02-28T11:53:35;9.47;;;5.17;;
7531;SDS011;3807;49.030;8.714;2023-02-28T11:56:25;5.67;;;3.83;;
7531;SDS011;3807;49.030;8.714;2023-02-28T11:59:20;14.27;;;4.90;;
7531;SDS011;3807;49.030;8.714;2023-02-28T12:04:35;8.40;;;5.27;;
7531;SDS011;3807;49.030;8.714;2023-02-28T12:07:09;6.07;;;4.20;;
7531;SDS011;3807;49.030;8.714;2023-02-28T12:12:35;12.17;;;6.60;;
7531;SDS011;3807;49.030;8.714;2023-02-28T12:26:00;12.60;;;8.50;;
7531;SDS011;3807;49.030;8.714;2023-02-28T12:28:34;9.93;;;6.37;;
7531;SDS011;3807;49.030;8.714;2023-02-28T12:31:06;8.93;;;6.07;;
7531;SDS011;3807;49.030;8.714;2023-02-28T12:33:38;6.47;;;4.97;;
7531;SDS011;3807;49.030;8.714;2023-02-28T12:36:10;8.67;;;5.70;;
7531;SDS011;3807;49.030;8.714;2023-02-28T12:38:44;8.20;;;5.50;;
7531;SDS011;3807;49.030;8.714;2023-02-28T12:41:33;9.33;;;5.93;;
7531;SDS011;3807;49.030;8.714;2023-02-28T12:44:06;11.80;;;7.43;;
7531;SDS011;3807;49.030;8.714;2023-02-28T12:46:38;12.27;;;5.53;;
7531;SDS011;3807;49.030;8.714;2023-02-28T12:49:09;8.07;;;4.13;;
7531;SDS011;3807;49.030;8.714;2023-02-28T12:51:38;9.63;;;5.83;;
7531;SDS011;3807;49.030;8.714;2023-02-28T12:59:37;8.77;;;4.93;;
7531;SDS011;3807;49.030;8.714;2023-02-28T13:10:48;10.17;;;7.13;;
7531;SDS011;3807;49.030;8.714;2023-02-28T13:13:23;12.00;;;6.63;;
7531;SDS011;3807;49.030;8.714;2023-02-28T13:15:57;10.10;;;4.70;;
7531;SDS011;3807;49.030;8.714;2023-02-28T13:18:29;5.20;;;3.73;;
7531;SDS011;3807;49.030;8.714;2023-02-28T13:20:56;11.63;;;7.63;;
7531;SDS011;3807;49.030;8.714;2023-02-28T13:23:36;7.87;;;5.97;;
7531;SDS011;3807;49.030;8.714;2023-02-28T13:26:04;10.50;;;6.00;;
7531;SDS011;3807;49.030;8.714;2023-02-28T13:31:13;7.30;;;4.90;;
7531;SDS011;3807;49.030;8.714;2023-02-28T13:44:13;7.10;;;5.13;;
7531;SDS011;3807;49.030;8.714;2023-02-28T13:49:32;7.60;;;5.57;;
7531;SDS011;3807;49.030;8.714;2023-02-28T14:00:54;8.97;;;5.60;;
7531;SDS011;3807;49.030;8.714;2023-02-28T14:06:54;5.10;;;4.00;;
7531;SDS011;3807;49.030;8.714;2023-02-28T14:09:28;11.77;;;7.67;;
7531;SDS011;3807;49.030;8.714;2023-02-28T14:11:57;13.20;;;7.20;;
7531;SDS011;3807;49.030;8.714;2023-02-28T14:14:53;8.17;;;5.40;;
7531;SDS011;3807;49.030;8.714;2023-02-28T14:17:20;10.27;;;6.40;;
7531;SDS011;3807;49.030;8.714;2023-02-28T14:19:46;7.53;;;4.37;;
7531;SDS011;3807;49.030;8.714;2023-02-28T14:30:29;12.70;;;5.97;;
7531;SDS011;3807;49.030;8.714;2023-02-28T14:35:50;9.97;;;6.93;;
7531;SDS011;3807;49.030;8.714;2023-02-28T14:38:30;9.20;;;5.77;;
7531;SDS011;3807;49.030;8.714;2023-02-28T14:41:00;6.17;;;5.10;;
7531;SDS011;3807;49.030;8.714;2023-02-28T14:43:31;10.93;;;7.17;;
7531;SDS011;3807;49.030;8.714;2023-02-28T14:45:58;11.13;;;8.10;;
7531;SDS011;3807;49.030;8.714;2023-02-28T14:48:27;10.23;;;6.03;;
7531;SDS011;3807;49.030;8.714;2023-02-28T14:50:54;13.33;;;7.90;;
7531;SDS011;3807;49.030;8.714;2023-02-28T14:53:22;12.27;;;7.30;;
7531;SDS011;3807;49.030;8.714;2023-02-28T14:55:50;14.83;;;7.93;;
7531;SDS011;3807;49.030;8.714;2023-02-28T14:58:28;11.17;;;6.43;;
7531;SDS011;3807;49.030;8.714;2023-02-28T15:00:56;12.83;;;6.90;;
7531;SDS011;3807;49.030;8.714;2023-02-28T15:03:24;11.57;;;7.47;;
7531;SDS011;3807;49.030;8.714;2023-02-28T15:06:00;12.57;;;8.03;;
7531;SDS011;3807;49.030;8.714;2023-02-28T15:08:28;7.60;;;5.40;;
7531;SDS011;3807;49.030;8.714;2023-02-28T15:11:00;9.87;;;6.20;;
7531;SDS011;3807;49.030;8.714;2023-02-28T15:13:51;11.53;;;7.83;;
7531;SDS011;3807;49.030;8.714;2023-02-28T15:16:17;5.87;;;4.67;;
7531;SDS011;3807;49.030;8.714;2023-02-28T15:18:48;8.77;;;6.07;;
7531;SDS011;3807;49.030;8.714;2023-02-28T15:23:49;7.43;;;5.37;;
7531;SDS011;3807;49.030;8.714;2023-02-28T15:26:19;7.73;;;5.53;;
7531;SDS011;3807;49.030;8.714;2023-02-28T15:28:48;8.53;;;5.50;;
7531;SDS011;3807;49.030;8.714;2023-02-28T15:31:43;11.03;;;5.80;;
7531;SDS011;3807;49.030;8.714;2023-02-28T15:34:35;7.30;;;5.47;;
7531;SDS011;3807;49.030;8.714;2023-02-28T15:39:51;11.23;;;6.83;;
7531;SDS011;3807;49.030;8.714;2023-02-28T15:42:19;11.93;;;7.87;;
7531;SDS011;3807;49.030;8.714;2023-02-28T15:44:45;11.93;;;6.40;;
7531;SDS011;3807;49.030;8.714;2023-02-28T15:47:23;10.50;;;7.27;;
7531;SDS011;3807;49.030;8.714;2023-02-28T15:49:52;14.97;;;7.67;;
7531;SDS011;3807;49.030;8.714;2023-02-28T15:52:21;7.70;;;4.37;;
7531;SDS011;3807;49.030;8.714;2023-02-28T15:54:52;7.00;;;4.97;;
7531;SDS011;3807;49.030;8.714;2023-02-28T15:57:22;12.90;;;7.13;;
7531;SDS011;3807;49.030;8.714;2023-02-28T15:59:51;11.37;;;7.43;;
7531;SDS011;3807;49.030;8.714;2023-02-28T16:02:20;11.40;;;7.60;;
7531;SDS011;3807;49.030;8.714;2023-02-28T16:04:57;9.00;;;5.73;;
7531;SDS011;3807;49.030;8.714;2023-02-28T16:07:25;8.87;;;6.43;;
7531;SDS011;3807;49.030;8.714;2023-02-28T16:09:51;12.67;;;6.70;;
7531;SDS011;3807;49.030;8.714;2023-02-28T16:12:16;13.67;;;9.50;;
7531;SDS011;3807;49.030;8.714;2023-02-28T16:14:42;11.23;;;8.07;;
7531;SDS011;3807;49.030;8.714;2023-02-28T16:17:16;15.10;;;8.50;;
7531;SDS011;3807;49.030;8.714;2023-02-28T16:19:46;11.83;;;7.03;;
7531;SDS011;3807;49.030;8.714;2023-02-28T16:22:12;12.80;;;7.43;;
7531;SDS011;3807;49.030;8.714;2023-02-28T16:24:37;11.67;;;7.23;;
7531;SDS011;3807;49.030;8.714;2023-02-28T16:27:03;12.23;;;8.27;;
7531;SDS011;3807;49.030;8.714;2023-02-28T16:29:30;5.60;;;4.00;;
7531;SDS011;3807;49.030;8.714;2023-02-28T16:31:59;12.37;;;7.20;;
7531;SDS011;3807;49.030;8.714;2023-02-28T16:34:25;11.27;;;6.83;;
7531;SDS011;3807;49.030;8.714;2023-02-28T16:36:50;11.27;;;7.30;;
7531;SDS011;3807;49.030;8.714;2023-02-28T16:39:16;13.73;;;7.73;;
7531;SDS011;3807;49.030;8.714;2023-02-28T16:41:42;9.17;;;6.27;;
7531;SDS011;3807;49.030;8.714;2023-02-28T16:44:10;8.33;;;5.00;;
7531;SDS011;3807;49.030;8.714;2023-02-28T16:46:39;11.33;;;6.90;;
7531;SDS011;3807;49.030;8.714;2023-02-28T16:49:04;15.50;;;7.67;;
7531;SDS011;3807;49.030;8.714;2023-02-28T16:51:33;10.90;;;6.50;;
7531;SDS011;3807;49.030;8.714;2023-02-28T16:53:59;11.13;;;7.90;;
7531;SDS011;3807;49.030;8.714;2023-02-28T16:56:24;15.67;;;8.47;;
7531;SDS011;3807;49.030;8.714;2023-02-28T16:58:50;13.37;;;7.30;;
7531;SDS011;3807;49.030;8.714;2023-02-28T17:01:17;10.57;;;6.93;;
7531;SDS011;3807;49.030;8.714;2023-02-28T17:03:46;11.00;;;6.33;;
7531;SDS011;3807;49.030;8.714;2023-02-28T17:06:20;10.20;;;6.90;;
7531;SDS011;3807;49.030;8.714;2023-02-28T17:08:48;12.10;;;7.20;;
7531;SDS011;3807;49.030;8.714;2023-02-28T17:11:15;14.77;;;8.23;;
7531;SDS011;3807;49.030;8.714;2023-02-28T17:13:41;12.27;;;7.90;;
7531;SDS011;3807;49.030;8.714;2023-02-28T17:16:08;12.30;;;7.77;;
7531;SDS011;3807;49.030;8.714;2023-02-28T17:18:50;14.00;;;8.13;;
7531;SDS011;3807;49.030;8.714;2023-02-28T17:21:16;16.63;;;8.47;;
7531;SDS011;3807;49.030;8.714;2023-02-28T17:23:42;11.53;;;7.37;;
7531;SDS011;3807;49.030;8.714;2023-02-28T17:26:09;11.77;;;7.50;;
7531;SDS011;3807;49.030;8.714;2023-02-28T17:28:38;11.73;;;8.47;;
7531;SDS011;3807;49.030;8.714;2023-02-28T17:31:04;11.40;;;7.40;;
7531;SDS011;3807;49.030;8.714;2023-02-28T17:33:29;15.17;;;8.47;;
7531;SDS011;3807;49.030;8.714;2023-02-28T17:35:54;14.23;;;7.57;;
7531;SDS011;3807;49.030;8.714;2023-02-28T17:38:20;12.27;;;7.13;;
7531;SDS011;3807;49.030;8.714;2023-02-28T17:40:47;15.73;;;9.07;;
7531;SDS011;3807;49.030;8.714;2023-02-28T17:43:13;11.20;;;7.57;;
7531;SDS011;3807;49.030;8.714;2023-02-28T17:45:39;11.67;;;7.50;;
7531;SDS011;3807;49.030;8.714;2023-02-28T17:48:05;12.40;;;7.53;;